CCNI Arauco — D5GZ3 — position and weather

sailwx.info

Track history (hours):
 
Tides and Currents Weather Stations Pressure Air Temp Water Temp Dewpoint Dewpoint Depression Visibility Wind Speed Wind Dir Waves Ship Positions

CCNI Arauco

Last reported at 2017-Oct-12 06:17 UTC. Time now 2017-Oct-19 16:54 UTC.
Position N 36°24' E 014°47'.

Length 300 m; draft 12.7 m.

Type: Ship (hazmat cat A). MMSI: 636016609.

Date/timePositionNaut miles runAvg speedWind from/ knotsBaromVisibWave heightAir tempDewpointWater temp
2017-Oct-12 06:17N 36°24' E 014°47'415.5
2017-Oct-12 06:00N 36°25' E 014°42'714.3
2017-Oct-12 05:30N 36°28' E 014°34'714.4
2017-Oct-12 05:01N 36°30' E 014°25'714.4
2017-Oct-12 04:29N 36°32' E 014°17'714.5
2017-Oct-12 04:00N 36°34' E 014°08'714.5
2017-Oct-12 03:30N 36°37' E 013°60'714.4
2017-Oct-12 02:59N 36°39' E 013°51'  
2017-Oct-08 04:36N 36°20' W 008°12'111.4
2017-Oct-08 04:30N 36°20' W 008°13'1111.5
2017-Oct-08 03:32N 36°23' W 008°27'111.5
2017-Oct-08 03:29N 36°23' W 008°27'511.6
2017-Oct-08 03:00N 36°24' W 008°34'611.5
2017-Oct-08 02:30N 36°26' W 008°41'611.4
2017-Oct-08 02:00N 36°27' W 008°48'611.5
2017-Oct-08 01:29N 36°29' W 008°55'612.0
2017-Oct-08 01:00N 36°30' W 009°02'612.1
2017-Oct-08 00:30N 36°32' W 009°09'612.2
2017-Oct-08 00:00N 36°34' W 009°16'611.9
2017-Oct-07 23:30N 36°37' W 009°22'711.9
2017-Oct-07 22:56N 36°43' W 009°28'512.2
2017-Oct-07 22:30N 36°46' W 009°32'611.6
2017-Oct-07 22:00N 36°52' W 009°35'612.1
2017-Oct-07 21:30N 36°58' W 009°37'612.0
2017-Oct-07 21:00N 37°03' W 009°38'612.1
2017-Oct-07 20:30N 37°09' W 009°40'712.2
2017-Oct-07 19:58N 37°16' W 009°42'612.2
2017-Oct-07 19:30N 37°21' W 009°43'612.2
2017-Oct-07 19:00N 37°27' W 009°45'612.1
2017-Oct-07 18:30N 37°33' W 009°47'612.4
2017-Oct-07 18:00N 37°39' W 009°48'612.2
2017-Oct-07 17:30N 37°45' W 009°50'612.8
2017-Oct-07 17:00N 37°51' W 009°52'613.0
2017-Oct-07 16:30N 37°58' W 009°54'612.9
2017-Oct-07 16:00N 38°04' W 009°55'612.6
2017-Oct-07 15:30N 38°10' W 009°57'612.1
2017-Oct-07 15:00N 38°16' W 009°59'612.4
2017-Oct-07 14:30N 38°22' W 010°01'612.2
2017-Oct-07 14:00N 38°28' W 010°03'612.0
2017-Oct-07 13:31N 38°34' W 010°04'612.9
2017-Oct-07 13:00N 38°40' W 010°06'612.5
2017-Oct-07 12:31N 38°46' W 010°06'612.4
2017-Oct-07 12:00N 38°53' W 010°07'611.9
2017-Oct-07 11:31N 38°59' W 010°07'612.1
2017-Oct-07 11:00N 39°05' W 010°07'612.7
2017-Oct-07 10:31N 39°11' W 010°07'612.8
2017-Oct-07 10:01N 39°17' W 010°07'612.6
2017-Oct-07 09:31N 39°24' W 010°06'612.6
2017-Oct-07 09:00N 39°30' W 010°06'612.4
2017-Oct-07 08:30N 39°36' W 010°06'612.1
2017-Oct-07 08:00N 39°42' W 010°06'612.5
2017-Oct-07 07:30N 39°48' W 010°06'612.4
2017-Oct-07 07:00N 39°55' W 010°06'612.2
2017-Oct-07 06:30N 40°01' W 010°06'612.3
2017-Oct-07 06:01N 40°07' W 010°06'612.8
2017-Oct-07 05:30N 40°13' W 010°06'612.7
2017-Oct-07 05:01N 40°20' W 010°06'612.5
2017-Oct-07 04:31N 40°26' W 010°06'612.3
2017-Oct-07 04:01N 40°32' W 010°06'612.3
2017-Oct-07 03:30N 40°38' W 010°06'612.5
2017-Oct-07 03:00N 40°44' W 010°06'612.6
2017-Oct-07 02:30N 40°51' W 010°06'612.4
2017-Oct-07 02:01N 40°57' W 010°06'612.2
2017-Oct-07 01:30N 41°03' W 010°06'612.5
2017-Oct-07 01:00N 41°09' W 010°06'612.2
2017-Oct-07 00:30N 41°15' W 010°05'612.3
2017-Oct-07 00:00N 41°21' W 010°06'612.3
2017-Oct-06 23:30N 41°28' W 010°06'612.3
2017-Oct-06 23:00N 41°34' W 010°06'612.5
2017-Oct-06 22:30N 41°40' W 010°07'612.4
2017-Oct-06 22:00N 41°46' W 010°06'712.3
2017-Oct-06 21:25N 41°53' W 010°06'512.4
2017-Oct-06 21:00N 41°59' W 010°06'612.3
2017-Oct-06 20:30N 42°05' W 010°06'612.6
2017-Oct-06 20:00N 42°11' W 010°06'613.0
2017-Oct-06 19:31N 42°18' W 010°06'612.9
2017-Oct-06 19:01N 42°24' W 010°06'48713.1
2017-Oct-05 05:59N 49°27' W 004°21'2810.6
2017-Oct-05 03:18N 49°41' W 003°43'510.7
2017-Oct-05 02:51N 49°44' W 003°37'410.6
2017-Oct-05 02:30N 49°45' W 003°32'511.0
2017-Oct-05 02:00N 49°48' W 003°24'611.9
2017-Oct-05 01:30N 49°51' W 003°16'612.6
2017-Oct-05 01:00N 49°54' W 003°08'612.9
2017-Oct-05 00:30N 49°57' W 002°58'713.2
2017-Oct-05 00:00N 49°59' W 002°49'713.2
2017-Oct-04 23:30N 50°01' W 002°39'612.6
2017-Oct-04 23:00N 50°03' W 002°30'912.4
2017-Oct-04 22:18N 50°06' W 002°17'411.8
2017-Oct-04 22:00N 50°07' W 002°12'611.2
2017-Oct-04 21:30N 50°08' W 002°03'510.2
2017-Oct-04 21:00N 50°09' W 001°56'5 9.7
2017-Oct-04 20:30N 50°11' W 001°48'5 9.1
2017-Oct-04 20:00N 50°12' W 001°42'4 8.8
2017-Oct-04 19:30N 50°13' W 001°35'4 8.6
2017-Oct-04 19:00N 50°14' W 001°29'4 8.5
2017-Oct-04 18:29N 50°16' W 001°22'4 8.9
2017-Oct-04 18:00N 50°17' W 001°16'5 9.5
2017-Oct-04 17:30N 50°18' W 001°08'2512.1
2017-Oct-04 15:25N 50°25' W 000°30'513.6
2017-Oct-04 15:01N 50°26' W 000°22'713.5
2017-Oct-04 14:31N 50°28' W 000°11'713.5
2017-Oct-04 14:00N 50°29' W 000°01'713.5
2017-Oct-04 13:30N 50°31' E 000°09'713.4
2017-Oct-04 13:00N 50°33' E 000°19'612.8
2017-Oct-04 12:30N 50°35' E 000°29'612.2
2017-Oct-04 12:00N 50°38' E 000°38'611.9
2017-Oct-04 11:30N 50°41' E 000°45'611.4
2017-Oct-04 11:00N 50°44' E 000°53'511.0
2017-Oct-04 10:31N 50°48' E 000°60'610.8
2017-Oct-04 09:59N 50°51' E 001°07'510.7
2017-Oct-04 09:30N 50°55' E 001°12'510.5
2017-Oct-04 09:00N 50°59' E 001°18'611.6
2017-Oct-04 08:31N 51°03' E 001°25'713.4
2017-Oct-04 08:00N 51°07' E 001°33'714.3
2017-Oct-04 07:30N 51°11' E 001°42'714.6
2017-Oct-04 07:00N 51°17' E 001°48'714.8
2017-Oct-04 06:30N 51°24' E 001°52'713.9
2017-Oct-04 06:00N 51°31' E 001°49'713.8
2017-Oct-04 05:30N 51°37' E 001°46'713.6
2017-Oct-04 05:00N 51°44' E 001°44'611.7
2017-Oct-04 04:30N 51°50' E 001°41'5 9.8
2017-Oct-04 04:01N 51°47' E 001°34'714.7
2017-Oct-04 03:31N 51°41' E 001°27'815.9
2017-Oct-04 03:01N 51°36' E 001°18'816.6
2017-Oct-04 02:31N 51°32' E 001°06'918.4
2017-Oct-04 02:00N 51°29' E 000°52'3 0.1
2017-Oct-02 15:27N 51°29' E 000°56'716.1
2017-Oct-02 15:01N 51°32' E 001°06'815.6
2017-Oct-02 14:31N 51°36' E 001°17'816.0
2017-Oct-02 14:01N 51°41' E 001°27'815.9
2017-Oct-02 13:31N 51°48' E 001°33'611.9
2017-Oct-02 13:00N 51°52' E 001°40'510.1
2017-Oct-02 12:30N 51°51' E 001°47'713.1
2017-Oct-02 11:59N 51°44' E 001°49'612.3
2017-Oct-02 11:30N 51°38' E 001°52'611.3
2017-Oct-02 11:00N 51°35' E 001°59'2 3.5
2017-Oct-02 10:30N 51°33' E 001°59'1 2.6
2017-Oct-02 10:00N 51°32' E 001°57'1 2.3
2017-Oct-02 09:30N 51°31' E 001°56'1 2.0
2017-Oct-02 09:00N 51°30' E 001°55'1 1.7
2017-Oct-02 08:30N 51°29' E 001°54'1 1.7
2017-Oct-02 08:00N 51°29' E 001°53'1 1.9
2017-Oct-02 07:30N 51°30' E 001°52'1 1.1
2017-Oct-02 07:00N 51°30' E 001°51'0 1.0
2017-Oct-02 06:30N 51°31' E 001°51'  
Track history (hours):
 
Tides and Currents Weather Stations Pressure Air Temp Water Temp Dewpoint Dewpoint Depression Visibility Wind Speed Wind Dir Waves Ship Positions

CCNI Arauco

Last reported at 2017-Oct-12 06:17 UTC. Time now 2017-Oct-19 16:54 UTC.
Position N 36°24' E 014°47'.

Length 300 m; draft 12.7 m.

Type: Ship (hazmat cat A). MMSI: 636016609.

Date/timePositionNaut miles runAvg speedWind from/ knotsBaromVisibWave heightAir tempDewpointWater temp
2017-Oct-12 06:17N 36°24' E 014°47'415.5
2017-Oct-12 06:00N 36°25' E 014°42'714.3
2017-Oct-12 05:30N 36°28' E 014°34'714.4
2017-Oct-12 05:01N 36°30' E 014°25'714.4
2017-Oct-12 04:29N 36°32' E 014°17'714.5
2017-Oct-12 04:00N 36°34' E 014°08'714.5
2017-Oct-12 03:30N 36°37' E 013°60'714.4
2017-Oct-12 02:59N 36°39' E 013°51'  
2017-Oct-08 04:36N 36°20' W 008°12'111.4
2017-Oct-08 04:30N 36°20' W 008°13'1111.5
2017-Oct-08 03:32N 36°23' W 008°27'111.5
2017-Oct-08 03:29N 36°23' W 008°27'511.6
2017-Oct-08 03:00N 36°24' W 008°34'611.5
2017-Oct-08 02:30N 36°26' W 008°41'611.4
2017-Oct-08 02:00N 36°27' W 008°48'611.5
2017-Oct-08 01:29N 36°29' W 008°55'612.0
2017-Oct-08 01:00N 36°30' W 009°02'612.1
2017-Oct-08 00:30N 36°32' W 009°09'612.2
2017-Oct-08 00:00N 36°34' W 009°16'611.9
2017-Oct-07 23:30N 36°37' W 009°22'711.9
2017-Oct-07 22:56N 36°43' W 009°28'512.2
2017-Oct-07 22:30N 36°46' W 009°32'611.6
2017-Oct-07 22:00N 36°52' W 009°35'612.1
2017-Oct-07 21:30N 36°58' W 009°37'612.0
2017-Oct-07 21:00N 37°03' W 009°38'612.1
2017-Oct-07 20:30N 37°09' W 009°40'712.2
2017-Oct-07 19:58N 37°16' W 009°42'612.2
2017-Oct-07 19:30N 37°21' W 009°43'612.2
2017-Oct-07 19:00N 37°27' W 009°45'612.1
2017-Oct-07 18:30N 37°33' W 009°47'612.4
2017-Oct-07 18:00N 37°39' W 009°48'612.2
2017-Oct-07 17:30N 37°45' W 009°50'612.8
2017-Oct-07 17:00N 37°51' W 009°52'613.0
2017-Oct-07 16:30N 37°58' W 009°54'612.9
2017-Oct-07 16:00N 38°04' W 009°55'612.6
2017-Oct-07 15:30N 38°10' W 009°57'612.1
2017-Oct-07 15:00N 38°16' W 009°59'612.4
2017-Oct-07 14:30N 38°22' W 010°01'612.2
2017-Oct-07 14:00N 38°28' W 010°03'612.0
2017-Oct-07 13:31N 38°34' W 010°04'612.9
2017-Oct-07 13:00N 38°40' W 010°06'612.5
2017-Oct-07 12:31N 38°46' W 010°06'612.4
2017-Oct-07 12:00N 38°53' W 010°07'611.9
2017-Oct-07 11:31N 38°59' W 010°07'612.1
2017-Oct-07 11:00N 39°05' W 010°07'612.7
2017-Oct-07 10:31N 39°11' W 010°07'612.8
2017-Oct-07 10:01N 39°17' W 010°07'612.6
2017-Oct-07 09:31N 39°24' W 010°06'612.6
2017-Oct-07 09:00N 39°30' W 010°06'612.4
2017-Oct-07 08:30N 39°36' W 010°06'612.1
2017-Oct-07 08:00N 39°42' W 010°06'612.5
2017-Oct-07 07:30N 39°48' W 010°06'612.4
2017-Oct-07 07:00N 39°55' W 010°06'612.2
2017-Oct-07 06:30N 40°01' W 010°06'612.3
2017-Oct-07 06:01N 40°07' W 010°06'612.8
2017-Oct-07 05:30N 40°13' W 010°06'612.7
2017-Oct-07 05:01N 40°20' W 010°06'612.5
2017-Oct-07 04:31N 40°26' W 010°06'612.3
2017-Oct-07 04:01N 40°32' W 010°06'612.3
2017-Oct-07 03:30N 40°38' W 010°06'612.5
2017-Oct-07 03:00N 40°44' W 010°06'612.6
2017-Oct-07 02:30N 40°51' W 010°06'612.4
2017-Oct-07 02:01N 40°57' W 010°06'612.2
2017-Oct-07 01:30N 41°03' W 010°06'612.5
2017-Oct-07 01:00N 41°09' W 010°06'612.2
2017-Oct-07 00:30N 41°15' W 010°05'612.3
2017-Oct-07 00:00N 41°21' W 010°06'612.3
2017-Oct-06 23:30N 41°28' W 010°06'612.3
2017-Oct-06 23:00N 41°34' W 010°06'612.5
2017-Oct-06 22:30N 41°40' W 010°07'612.4
2017-Oct-06 22:00N 41°46' W 010°06'712.3
2017-Oct-06 21:25N 41°53' W 010°06'512.4
2017-Oct-06 21:00N 41°59' W 010°06'612.3
2017-Oct-06 20:30N 42°05' W 010°06'612.6
2017-Oct-06 20:00N 42°11' W 010°06'613.0
2017-Oct-06 19:31N 42°18' W 010°06'612.9
2017-Oct-06 19:01N 42°24' W 010°06'48713.1
2017-Oct-05 05:59N 49°27' W 004°21'2810.6
2017-Oct-05 03:18N 49°41' W 003°43'510.7
2017-Oct-05 02:51N 49°44' W 003°37'410.6
2017-Oct-05 02:30N 49°45' W 003°32'511.0
2017-Oct-05 02:00N 49°48' W 003°24'611.9
2017-Oct-05 01:30N 49°51' W 003°16'612.6
2017-Oct-05 01:00N 49°54' W 003°08'612.9
2017-Oct-05 00:30N 49°57' W 002°58'713.2
2017-Oct-05 00:00N 49°59' W 002°49'713.2
2017-Oct-04 23:30N 50°01' W 002°39'612.6
2017-Oct-04 23:00N 50°03' W 002°30'912.4
2017-Oct-04 22:18N 50°06' W 002°17'411.8
2017-Oct-04 22:00N 50°07' W 002°12'611.2
2017-Oct-04 21:30N 50°08' W 002°03'510.2
2017-Oct-04 21:00N 50°09' W 001°56'5 9.7
2017-Oct-04 20:30N 50°11' W 001°48'5 9.1
2017-Oct-04 20:00N 50°12' W 001°42'4 8.8
2017-Oct-04 19:30N 50°13' W 001°35'4 8.6
2017-Oct-04 19:00N 50°14' W 001°29'4 8.5
2017-Oct-04 18:29N 50°16' W 001°22'4 8.9
2017-Oct-04 18:00N 50°17' W 001°16'5 9.5
2017-Oct-04 17:30N 50°18' W 001°08'2512.1
2017-Oct-04 15:25N 50°25' W 000°30'513.6
2017-Oct-04 15:01N 50°26' W 000°22'713.5
2017-Oct-04 14:31N 50°28' W 000°11'713.5
2017-Oct-04 14:00N 50°29' W 000°01'713.5
2017-Oct-04 13:30N 50°31' E 000°09'713.4
2017-Oct-04 13:00N 50°33' E 000°19'612.8
2017-Oct-04 12:30N 50°35' E 000°29'612.2
2017-Oct-04 12:00N 50°38' E 000°38'611.9
2017-Oct-04 11:30N 50°41' E 000°45'611.4
2017-Oct-04 11:00N 50°44' E 000°53'511.0
2017-Oct-04 10:31N 50°48' E 000°60'610.8
2017-Oct-04 09:59N 50°51' E 001°07'510.7
2017-Oct-04 09:30N 50°55' E 001°12'510.5
2017-Oct-04 09:00N 50°59' E 001°18'611.6
2017-Oct-04 08:31N 51°03' E 001°25'713.4
2017-Oct-04 08:00N 51°07' E 001°33'714.3
2017-Oct-04 07:30N 51°11' E 001°42'714.6
2017-Oct-04 07:00N 51°17' E 001°48'714.8
2017-Oct-04 06:30N 51°24' E 001°52'713.9
2017-Oct-04 06:00N 51°31' E 001°49'713.8
2017-Oct-04 05:30N 51°37' E 001°46'713.6
2017-Oct-04 05:00N 51°44' E 001°44'611.7
2017-Oct-04 04:30N 51°50' E 001°41'5 9.8
2017-Oct-04 04:01N 51°47' E 001°34'714.7
2017-Oct-04 03:31N 51°41' E 001°27'815.9
2017-Oct-04 03:01N 51°36' E 001°18'816.6
2017-Oct-04 02:31N 51°32' E 001°06'918.4
2017-Oct-04 02:00N 51°29' E 000°52'3 0.1
2017-Oct-02 15:27N 51°29' E 000°56'716.1
2017-Oct-02 15:01N 51°32' E 001°06'815.6
2017-Oct-02 14:31N 51°36' E 001°17'816.0
2017-Oct-02 14:01N 51°41' E 001°27'815.9
2017-Oct-02 13:31N 51°48' E 001°33'611.9
2017-Oct-02 13:00N 51°52' E 001°40'510.1
2017-Oct-02 12:30N 51°51' E 001°47'713.1
2017-Oct-02 11:59N 51°44' E 001°49'612.3
2017-Oct-02 11:30N 51°38' E 001°52'611.3
2017-Oct-02 11:00N 51°35' E 001°59'2 3.5
2017-Oct-02 10:30N 51°33' E 001°59'1 2.6
2017-Oct-02 10:00N 51°32' E 001°57'1 2.3
2017-Oct-02 09:30N 51°31' E 001°56'1 2.0
2017-Oct-02 09:00N 51°30' E 001°55'1 1.7
2017-Oct-02 08:30N 51°29' E 001°54'1 1.7
2017-Oct-02 08:00N 51°29' E 001°53'1 1.9
2017-Oct-02 07:30N 51°30' E 001°52'1 1.1
2017-Oct-02 07:00N 51°30' E 001°51'0 1.0
2017-Oct-02 06:30N 51°31' E 001°51'  

Dump ship's entire track history